sensor_id;sensor_type;location;lat;lon;timestamp;P1;durP1;ratioP1;P2;durP2;ratioP2
71734;SDS011;59577;52.122;5.406;2023-12-04T00:00:53;13.83;;;6.00;;
71734;SDS011;59577;52.122;5.406;2023-12-04T00:03:19;13.70;;;5.75;;
71734;SDS011;59577;52.122;5.406;2023-12-04T00:05:46;16.20;;;6.85;;
71734;SDS011;59577;52.122;5.406;2023-12-04T00:08:13;12.20;;;6.07;;
71734;SDS011;59577;52.122;5.406;2023-12-04T00:10:39;14.30;;;6.05;;
71734;SDS011;59577;52.122;5.406;2023-12-04T00:13:06;12.97;;;5.90;;
71734;SDS011;59577;52.122;5.406;2023-12-04T00:15:33;12.68;;;6.95;;
71734;SDS011;59577;52.122;5.406;2023-12-04T00:17:59;11.20;;;5.07;;
71734;SDS011;59577;52.122;5.406;2023-12-04T00:20:26;15.57;;;6.15;;
71734;SDS011;59577;52.122;5.406;2023-12-04T00:22:53;14.43;;;6.10;;
71734;SDS011;59577;52.122;5.406;2023-12-04T00:25:20;13.60;;;6.00;;
71734;SDS011;59577;52.122;5.406;2023-12-04T00:27:47;11.52;;;5.97;;
71734;SDS011;59577;52.122;5.406;2023-12-04T00:30:14;11.88;;;5.57;;
71734;SDS011;59577;52.122;5.406;2023-12-04T00:32:40;14.80;;;6.18;;
71734;SDS011;59577;52.122;5.406;2023-12-04T00:35:07;16.92;;;7.28;;
71734;SDS011;59577;52.122;5.406;2023-12-04T00:37:33;17.20;;;7.17;;
71734;SDS011;59577;52.122;5.406;2023-12-04T00:40:05;18.45;;;7.10;;
71734;SDS011;59577;52.122;5.406;2023-12-04T00:42:33;12.85;;;5.97;;
71734;SDS011;59577;52.122;5.406;2023-12-04T00:45:00;18.27;;;6.82;;
71734;SDS011;59577;52.122;5.406;2023-12-04T00:47:26;14.32;;;5.82;;
71734;SDS011;59577;52.122;5.406;2023-12-04T00:49:53;16.50;;;6.10;;
71734;SDS011;59577;52.122;5.406;2023-12-04T00:52:19;14.00;;;6.68;;
71734;SDS011;59577;52.122;5.406;2023-12-04T00:54:46;15.73;;;7.00;;
71734;SDS011;59577;52.122;5.406;2023-12-04T00:57:12;17.23;;;8.32;;
71734;SDS011;59577;52.122;5.406;2023-12-04T00:59:39;16.13;;;7.35;;
71734;SDS011;59577;52.122;5.406;2023-12-04T01:02:06;16.77;;;6.53;;
71734;SDS011;59577;52.122;5.406;2023-12-04T01:04:33;16.02;;;6.65;;
71734;SDS011;59577;52.122;5.406;2023-12-04T01:07:00;16.85;;;7.13;;
71734;SDS011;59577;52.122;5.406;2023-12-04T01:09:27;17.88;;;7.75;;
71734;SDS011;59577;52.122;5.406;2023-12-04T01:11:54;17.45;;;6.30;;
71734;SDS011;59577;52.122;5.406;2023-12-04T01:14:21;15.27;;;6.37;;
71734;SDS011;59577;52.122;5.406;2023-12-04T01:16:48;15.23;;;6.90;;
71734;SDS011;59577;52.122;5.406;2023-12-04T01:19:14;16.45;;;6.82;;
71734;SDS011;59577;52.122;5.406;2023-12-04T01:21:41;14.50;;;6.25;;
71734;SDS011;59577;52.122;5.406;2023-12-04T01:24:08;16.63;;;7.68;;
71734;SDS011;59577;52.122;5.406;2023-12-04T01:26:35;18.40;;;7.70;;
71734;SDS011;59577;52.122;5.406;2023-12-04T01:29:02;18.73;;;7.45;;
71734;SDS011;59577;52.122;5.406;2023-12-04T01:31:29;17.63;;;7.55;;
71734;SDS011;59577;52.122;5.406;2023-12-04T01:33:55;20.65;;;8.13;;
71734;SDS011;59577;52.122;5.406;2023-12-04T01:36:22;20.35;;;8.02;;
71734;SDS011;59577;52.122;5.406;2023-12-04T01:38:49;16.90;;;6.83;;
71734;SDS011;59577;52.122;5.406;2023-12-04T01:41:15;14.77;;;6.93;;
71734;SDS011;59577;52.122;5.406;2023-12-04T01:43:42;16.27;;;7.90;;
71734;SDS011;59577;52.122;5.406;2023-12-04T01:46:08;16.45;;;5.80;;
71734;SDS011;59577;52.122;5.406;2023-12-04T01:48:36;16.73;;;7.00;;
71734;SDS011;59577;52.122;5.406;2023-12-04T01:51:05;16.43;;;6.97;;
71734;SDS011;59577;52.122;5.406;2023-12-04T01:53:35;14.07;;;5.85;;
71734;SDS011;59577;52.122;5.406;2023-12-04T01:56:03;19.40;;;7.78;;
71734;SDS011;59577;52.122;5.406;2023-12-04T01:58:30;15.95;;;7.00;;
71734;SDS011;59577;52.122;5.406;2023-12-04T02:00:58;16.63;;;7.10;;
71734;SDS011;59577;52.122;5.406;2023-12-04T02:03:24;17.70;;;6.97;;
71734;SDS011;59577;52.122;5.406;2023-12-04T02:05:51;16.67;;;6.65;;
71734;SDS011;59577;52.122;5.406;2023-12-04T02:08:19;16.60;;;6.55;;
71734;SDS011;59577;52.122;5.406;2023-12-04T02:10:45;19.13;;;7.68;;
71734;SDS011;59577;52.122;5.406;2023-12-04T02:13:12;15.60;;;6.93;;
71734;SDS011;59577;52.122;5.406;2023-12-04T02:15:39;25.23;;;8.47;;
71734;SDS011;59577;52.122;5.406;2023-12-04T02:18:05;16.50;;;6.72;;
71734;SDS011;59577;52.122;5.406;2023-12-04T02:20:32;17.88;;;7.13;;
71734;SDS011;59577;52.122;5.406;2023-12-04T02:23:03;15.43;;;6.57;;
71734;SDS011;59577;52.122;5.406;2023-12-04T02:25:30;20.33;;;7.40;;
71734;SDS011;59577;52.122;5.406;2023-12-04T02:28:05;18.60;;;7.80;;
71734;SDS011;59577;52.122;5.406;2023-12-04T02:30:34;16.98;;;7.20;;
71734;SDS011;59577;52.122;5.406;2023-12-04T02:33:04;15.52;;;6.97;;
71734;SDS011;59577;52.122;5.406;2023-12-04T02:35:33;18.02;;;7.15;;
71734;SDS011;59577;52.122;5.406;2023-12-04T02:38:01;18.88;;;7.72;;
71734;SDS011;59577;52.122;5.406;2023-12-04T02:40:28;13.70;;;6.27;;
71734;SDS011;59577;52.122;5.406;2023-12-04T02:42:55;18.40;;;7.57;;
71734;SDS011;59577;52.122;5.406;2023-12-04T02:45:22;16.75;;;7.70;;
71734;SDS011;59577;52.122;5.406;2023-12-04T02:47:48;17.33;;;7.30;;
71734;SDS011;59577;52.122;5.406;2023-12-04T02:50:15;21.23;;;7.72;;
71734;SDS011;59577;52.122;5.406;2023-12-04T02:52:41;20.47;;;6.50;;
71734;SDS011;59577;52.122;5.406;2023-12-04T02:55:08;15.05;;;5.93;;
71734;SDS011;59577;52.122;5.406;2023-12-04T02:57:35;17.17;;;7.65;;
71734;SDS011;59577;52.122;5.406;2023-12-04T03:00:01;20.73;;;8.15;;
71734;SDS011;59577;52.122;5.406;2023-12-04T03:02:29;15.15;;;6.00;;
71734;SDS011;59577;52.122;5.406;2023-12-04T03:04:56;15.33;;;6.83;;
71734;SDS011;59577;52.122;5.406;2023-12-04T03:07:22;18.75;;;7.20;;
71734;SDS011;59577;52.122;5.406;2023-12-04T03:09:50;15.40;;;7.18;;
71734;SDS011;59577;52.122;5.406;2023-12-04T03:12:17;15.15;;;6.43;;
71734;SDS011;59577;52.122;5.406;2023-12-04T03:14:43;18.55;;;7.63;;
71734;SDS011;59577;52.122;5.406;2023-12-04T03:17:10;18.87;;;7.03;;
71734;SDS011;59577;52.122;5.406;2023-12-04T03:19:37;15.20;;;6.25;;
71734;SDS011;59577;52.122;5.406;2023-12-04T03:22:03;17.92;;;6.95;;
71734;SDS011;59577;52.122;5.406;2023-12-04T03:24:30;13.80;;;5.95;;
71734;SDS011;59577;52.122;5.406;2023-12-04T03:26:56;12.63;;;6.30;;
71734;SDS011;59577;52.122;5.406;2023-12-04T03:29:23;20.03;;;7.50;;
71734;SDS011;59577;52.122;5.406;2023-12-04T03:31:50;15.52;;;6.78;;
71734;SDS011;59577;52.122;5.406;2023-12-04T03:34:17;14.57;;;6.97;;
71734;SDS011;59577;52.122;5.406;2023-12-04T03:36:43;18.75;;;6.72;;
71734;SDS011;59577;52.122;5.406;2023-12-04T03:39:10;21.08;;;6.85;;
71734;SDS011;59577;52.122;5.406;2023-12-04T03:41:36;18.53;;;7.07;;
71734;SDS011;59577;52.122;5.406;2023-12-04T03:44:03;16.88;;;7.78;;
71734;SDS011;59577;52.122;5.406;2023-12-04T03:46:30;13.07;;;6.85;;
71734;SDS011;59577;52.122;5.406;2023-12-04T03:48:56;15.40;;;6.22;;
71734;SDS011;59577;52.122;5.406;2023-12-04T03:51:23;15.15;;;6.82;;
71734;SDS011;59577;52.122;5.406;2023-12-04T03:53:49;14.63;;;7.40;;
71734;SDS011;59577;52.122;5.406;2023-12-04T03:56:16;14.63;;;6.35;;
71734;SDS011;59577;52.122;5.406;2023-12-04T03:58:42;14.82;;;6.82;;
71734;SDS011;59577;52.122;5.406;2023-12-04T04:01:09;14.82;;;7.20;;
71734;SDS011;59577;52.122;5.406;2023-12-04T04:03:36;15.55;;;6.72;;
71734;SDS011;59577;52.122;5.406;2023-12-04T04:06:02;18.13;;;6.93;;
71734;SDS011;59577;52.122;5.406;2023-12-04T04:08:29;16.15;;;7.50;;
71734;SDS011;59577;52.122;5.406;2023-12-04T04:10:56;12.32;;;5.75;;
71734;SDS011;59577;52.122;5.406;2023-12-04T04:13:22;11.95;;;5.45;;
71734;SDS011;59577;52.122;5.406;2023-12-04T04:15:49;14.70;;;7.03;;
71734;SDS011;59577;52.122;5.406;2023-12-04T04:18:15;17.80;;;6.07;;
71734;SDS011;59577;52.122;5.406;2023-12-04T04:20:42;18.60;;;5.80;;
71734;SDS011;59577;52.122;5.406;2023-12-04T04:23:08;13.57;;;7.32;;
71734;SDS011;59577;52.122;5.406;2023-12-04T04:25:35;15.02;;;6.65;;
71734;SDS011;59577;52.122;5.406;2023-12-04T04:28:02;13.73;;;6.25;;
71734;SDS011;59577;52.122;5.406;2023-12-04T04:30:29;12.90;;;6.10;;
71734;SDS011;59577;52.122;5.406;2023-12-04T04:32:55;14.40;;;6.30;;
71734;SDS011;59577;52.122;5.406;2023-12-04T04:35:22;17.25;;;6.82;;
71734;SDS011;59577;52.122;5.406;2023-12-04T04:37:48;14.20;;;7.25;;
71734;SDS011;59577;52.122;5.406;2023-12-04T04:40:17;16.42;;;6.47;;
71734;SDS011;59577;52.122;5.406;2023-12-04T04:42:43;13.67;;;6.27;;
71734;SDS011;59577;52.122;5.406;2023-12-04T04:45:10;12.48;;;4.60;;
71734;SDS011;59577;52.122;5.406;2023-12-04T04:47:36;11.48;;;5.95;;
71734;SDS011;59577;52.122;5.406;2023-12-04T04:50:03;11.82;;;5.35;;
71734;SDS011;59577;52.122;5.406;2023-12-04T04:52:30;13.80;;;5.63;;
71734;SDS011;59577;52.122;5.406;2023-12-04T04:54:58;13.67;;;6.43;;
71734;SDS011;59577;52.122;5.406;2023-12-04T04:57:24;12.27;;;6.35;;
71734;SDS011;59577;52.122;5.406;2023-12-04T04:59:51;12.55;;;5.32;;
71734;SDS011;59577;52.122;5.406;2023-12-04T05:02:17;13.65;;;5.55;;
71734;SDS011;59577;52.122;5.406;2023-12-04T05:04:44;11.52;;;6.25;;
71734;SDS011;59577;52.122;5.406;2023-12-04T05:07:11;14.93;;;5.73;;
71734;SDS011;59577;52.122;5.406;2023-12-04T05:09:37;12.45;;;5.30;;
71734;SDS011;59577;52.122;5.406;2023-12-04T05:12:04;10.70;;;5.75;;
71734;SDS011;59577;52.122;5.406;2023-12-04T05:14:31;14.98;;;6.30;;
71734;SDS011;59577;52.122;5.406;2023-12-04T05:16:57;11.02;;;4.82;;
71734;SDS011;59577;52.122;5.406;2023-12-04T05:19:24;13.27;;;5.93;;
71734;SDS011;59577;52.122;5.406;2023-12-04T05:21:51;11.45;;;5.50;;
71734;SDS011;59577;52.122;5.406;2023-12-04T05:24:18;8.13;;;4.18;;
71734;SDS011;59577;52.122;5.406;2023-12-04T05:26:44;10.27;;;5.18;;
71734;SDS011;59577;52.122;5.406;2023-12-04T05:29:11;11.98;;;4.60;;
71734;SDS011;59577;52.122;5.406;2023-12-04T05:31:38;10.03;;;5.47;;
71734;SDS011;59577;52.122;5.406;2023-12-04T05:34:05;15.25;;;6.78;;
71734;SDS011;59577;52.122;5.406;2023-12-04T05:36:31;10.35;;;5.10;;
71734;SDS011;59577;52.122;5.406;2023-12-04T05:38:58;11.63;;;5.18;;
71734;SDS011;59577;52.122;5.406;2023-12-04T05:41:26;12.35;;;6.00;;
71734;SDS011;59577;52.122;5.406;2023-12-04T05:43:53;12.53;;;5.27;;
71734;SDS011;59577;52.122;5.406;2023-12-04T05:46:19;11.75;;;4.93;;
71734;SDS011;59577;52.122;5.406;2023-12-04T05:48:47;12.65;;;6.40;;
71734;SDS011;59577;52.122;5.406;2023-12-04T05:51:14;10.15;;;5.13;;
71734;SDS011;59577;52.122;5.406;2023-12-04T05:53:41;9.73;;;5.00;;
71734;SDS011;59577;52.122;5.406;2023-12-04T05:56:08;11.33;;;5.20;;
71734;SDS011;59577;52.122;5.406;2023-12-04T05:58:35;11.23;;;4.97;;
71734;SDS011;59577;52.122;5.406;2023-12-04T06:01:01;10.65;;;5.35;;
71734;SDS011;59577;52.122;5.406;2023-12-04T06:03:28;10.45;;;5.00;;
71734;SDS011;59577;52.122;5.406;2023-12-04T06:05:55;10.48;;;5.15;;
71734;SDS011;59577;52.122;5.406;2023-12-04T06:08:25;9.57;;;5.23;;
71734;SDS011;59577;52.122;5.406;2023-12-04T06:10:52;11.13;;;5.10;;
71734;SDS011;59577;52.122;5.406;2023-12-04T06:13:19;10.13;;;4.15;;
71734;SDS011;59577;52.122;5.406;2023-12-04T06:15:45;11.65;;;5.95;;
71734;SDS011;59577;52.122;5.406;2023-12-04T06:18:12;8.52;;;4.60;;
71734;SDS011;59577;52.122;5.406;2023-12-04T06:20:39;11.93;;;5.33;;
71734;SDS011;59577;52.122;5.406;2023-12-04T06:23:05;14.85;;;5.50;;
71734;SDS011;59577;52.122;5.406;2023-12-04T06:25:32;12.07;;;5.82;;
71734;SDS011;59577;52.122;5.406;2023-12-04T06:27:59;10.95;;;4.88;;
71734;SDS011;59577;52.122;5.406;2023-12-04T06:30:26;10.07;;;5.25;;
71734;SDS011;59577;52.122;5.406;2023-12-04T06:32:53;11.67;;;4.83;;
71734;SDS011;59577;52.122;5.406;2023-12-04T06:35:20;9.13;;;4.88;;
71734;SDS011;59577;52.122;5.406;2023-12-04T06:37:48;10.38;;;5.32;;
71734;SDS011;59577;52.122;5.406;2023-12-04T06:40:16;11.32;;;5.38;;
71734;SDS011;59577;52.122;5.406;2023-12-04T06:42:43;10.88;;;5.00;;
71734;SDS011;59577;52.122;5.406;2023-12-04T06:45:10;11.50;;;5.13;;
71734;SDS011;59577;52.122;5.406;2023-12-04T06:47:37;12.30;;;5.10;;
71734;SDS011;59577;52.122;5.406;2023-12-04T06:50:06;8.20;;;4.35;;
71734;SDS011;59577;52.122;5.406;2023-12-04T06:52:33;9.95;;;5.63;;
71734;SDS011;59577;52.122;5.406;2023-12-04T06:55:00;9.43;;;4.80;;
71734;SDS011;59577;52.122;5.406;2023-12-04T06:57:26;8.07;;;5.20;;
71734;SDS011;59577;52.122;5.406;2023-12-04T06:59:53;11.27;;;5.13;;
71734;SDS011;59577;52.122;5.406;2023-12-04T07:02:19;8.43;;;4.95;;
71734;SDS011;59577;52.122;5.406;2023-12-04T07:04:46;12.00;;;5.50;;
71734;SDS011;59577;52.122;5.406;2023-12-04T07:07:13;9.80;;;4.90;;
71734;SDS011;59577;52.122;5.406;2023-12-04T07:09:40;9.03;;;5.20;;
71734;SDS011;59577;52.122;5.406;2023-12-04T07:12:06;8.20;;;4.38;;
71734;SDS011;59577;52.122;5.406;2023-12-04T07:14:36;9.85;;;4.65;;
71734;SDS011;59577;52.122;5.406;2023-12-04T07:17:02;11.27;;;4.35;;
71734;SDS011;59577;52.122;5.406;2023-12-04T07:19:29;9.00;;;4.80;;
71734;SDS011;59577;52.122;5.406;2023-12-04T07:21:57;10.33;;;4.80;;
71734;SDS011;59577;52.122;5.406;2023-12-04T07:24:23;7.70;;;5.28;;
71734;SDS011;59577;52.122;5.406;2023-12-04T07:26:50;8.93;;;4.30;;
71734;SDS011;59577;52.122;5.406;2023-12-04T07:29:17;10.75;;;4.97;;
71734;SDS011;59577;52.122;5.406;2023-12-04T07:31:43;10.95;;;4.97;;
71734;SDS011;59577;52.122;5.406;2023-12-04T07:34:10;11.57;;;5.13;;
71734;SDS011;59577;52.122;5.406;2023-12-04T07:36:36;6.15;;;3.92;;
71734;SDS011;59577;52.122;5.406;2023-12-04T07:39:03;8.55;;;4.00;;
71734;SDS011;59577;52.122;5.406;2023-12-04T07:41:32;9.15;;;4.68;;
71734;SDS011;59577;52.122;5.406;2023-12-04T07:43:59;13.25;;;4.60;;
71734;SDS011;59577;52.122;5.406;2023-12-04T07:46:26;9.53;;;4.67;;
71734;SDS011;59577;52.122;5.406;2023-12-04T07:48:52;5.80;;;3.65;;
71734;SDS011;59577;52.122;5.406;2023-12-04T07:51:21;8.80;;;4.63;;
71734;SDS011;59577;52.122;5.406;2023-12-04T07:53:48;8.40;;;4.18;;
71734;SDS011;59577;52.122;5.406;2023-12-04T07:56:14;10.80;;;4.60;;
71734;SDS011;59577;52.122;5.406;2023-12-04T07:58:41;8.20;;;4.10;;
71734;SDS011;59577;52.122;5.406;2023-12-04T08:01:07;8.77;;;4.57;;
71734;SDS011;59577;52.122;5.406;2023-12-04T08:03:34;10.23;;;4.93;;
71734;SDS011;59577;52.122;5.406;2023-12-04T08:06:02;7.25;;;4.22;;
71734;SDS011;59577;52.122;5.406;2023-12-04T08:08:29;7.78;;;3.67;;
71734;SDS011;59577;52.122;5.406;2023-12-04T08:10:55;14.03;;;4.20;;
71734;SDS011;59577;52.122;5.406;2023-12-04T08:13:22;8.35;;;4.25;;
71734;SDS011;59577;52.122;5.406;2023-12-04T08:15:48;7.88;;;4.18;;
71734;SDS011;59577;52.122;5.406;2023-12-04T08:18:15;5.88;;;3.03;;
71734;SDS011;59577;52.122;5.406;2023-12-04T08:20:42;10.82;;;3.97;;
71734;SDS011;59577;52.122;5.406;2023-12-04T08:23:08;7.10;;;3.93;;
71734;SDS011;59577;52.122;5.406;2023-12-04T08:25:35;8.73;;;4.93;;
71734;SDS011;59577;52.122;5.406;2023-12-04T08:28:05;6.90;;;4.10;;
71734;SDS011;59577;52.122;5.406;2023-12-04T08:30:32;7.03;;;3.88;;
71734;SDS011;59577;52.122;5.406;2023-12-04T08:32:58;6.65;;;4.18;;
71734;SDS011;59577;52.122;5.406;2023-12-04T08:35:25;6.40;;;3.57;;
71734;SDS011;59577;52.122;5.406;2023-12-04T08:37:52;7.93;;;3.20;;
71734;SDS011;59577;52.122;5.406;2023-12-04T08:40:19;7.10;;;4.30;;
71734;SDS011;59577;52.122;5.406;2023-12-04T08:42:45;8.25;;;4.07;;
71734;SDS011;59577;52.122;5.406;2023-12-04T08:45:12;9.18;;;4.13;;
71734;SDS011;59577;52.122;5.406;2023-12-04T08:47:39;7.33;;;4.33;;
71734;SDS011;59577;52.122;5.406;2023-12-04T08:50:07;6.53;;;3.70;;
71734;SDS011;59577;52.122;5.406;2023-12-04T08:52:34;5.82;;;4.00;;
71734;SDS011;59577;52.122;5.406;2023-12-04T08:55:00;7.03;;;4.10;;
71734;SDS011;59577;52.122;5.406;2023-12-04T08:57:28;5.85;;;3.15;;
71734;SDS011;59577;52.122;5.406;2023-12-04T08:59:54;6.43;;;3.50;;
71734;SDS011;59577;52.122;5.406;2023-12-04T09:02:21;7.90;;;4.53;;
71734;SDS011;59577;52.122;5.406;2023-12-04T09:04:47;6.63;;;4.00;;
71734;SDS011;59577;52.122;5.406;2023-12-04T09:07:14;6.43;;;3.72;;
71734;SDS011;59577;52.122;5.406;2023-12-04T09:09:44;6.90;;;4.57;;
71734;SDS011;59577;52.122;5.406;2023-12-04T09:12:12;6.13;;;2.80;;
71734;SDS011;59577;52.122;5.406;2023-12-04T09:14:39;6.00;;;4.50;;
71734;SDS011;59577;52.122;5.406;2023-12-04T09:17:06;5.93;;;3.38;;
71734;SDS011;59577;52.122;5.406;2023-12-04T09:19:32;6.22;;;4.03;;
71734;SDS011;59577;52.122;5.406;2023-12-04T09:21:59;9.10;;;4.30;;
71734;SDS011;59577;52.122;5.406;2023-12-04T09:24:38;9.87;;;4.47;;
71734;SDS011;59577;52.122;5.406;2023-12-04T09:27:04;6.57;;;3.72;;
71734;SDS011;59577;52.122;5.406;2023-12-04T09:29:33;7.70;;;3.85;;
71734;SDS011;59577;52.122;5.406;2023-12-04T09:32:00;5.63;;;3.60;;
71734;SDS011;59577;52.122;5.406;2023-12-04T09:34:27;6.72;;;3.50;;
71734;SDS011;59577;52.122;5.406;2023-12-04T09:36:53;10.73;;;4.37;;
71734;SDS011;59577;52.122;5.406;2023-12-04T09:39:27;6.93;;;3.92;;
71734;SDS011;59577;52.122;5.406;2023-12-04T09:41:54;8.00;;;3.75;;
71734;SDS011;59577;52.122;5.406;2023-12-04T09:44:22;8.57;;;3.95;;
71734;SDS011;59577;52.122;5.406;2023-12-04T09:46:51;7.60;;;4.35;;
71734;SDS011;59577;52.122;5.406;2023-12-04T09:49:18;10.93;;;4.83;;
71734;SDS011;59577;52.122;5.406;2023-12-04T09:51:46;7.28;;;3.42;;
71734;SDS011;59577;52.122;5.406;2023-12-04T09:54:13;5.22;;;3.40;;
71734;SDS011;59577;52.122;5.406;2023-12-04T09:56:43;5.25;;;3.63;;
71734;SDS011;59577;52.122;5.406;2023-12-04T09:59:10;5.47;;;3.25;;
71734;SDS011;59577;52.122;5.406;2023-12-04T10:01:41;6.27;;;3.77;;
71734;SDS011;59577;52.122;5.406;2023-12-04T10:04:09;6.22;;;2.58;;
71734;SDS011;59577;52.122;5.406;2023-12-04T10:06:37;5.18;;;3.53;;
71734;SDS011;59577;52.122;5.406;2023-12-04T10:09:04;4.97;;;3.22;;
71734;SDS011;59577;52.122;5.406;2023-12-04T10:11:46;4.38;;;3.20;;
71734;SDS011;59577;52.122;5.406;2023-12-04T10:14:17;4.80;;;3.13;;
71734;SDS011;59577;52.122;5.406;2023-12-04T10:16:45;7.22;;;3.50;;
71734;SDS011;59577;52.122;5.406;2023-12-04T10:21:48;7.00;;;3.75;;
71734;SDS011;59577;52.122;5.406;2023-12-04T10:24:34;4.72;;;2.75;;
71734;SDS011;59577;52.122;5.406;2023-12-04T10:27:03;4.23;;;1.93;;
71734;SDS011;59577;52.122;5.406;2023-12-04T10:29:39;4.68;;;2.60;;
71734;SDS011;59577;52.122;5.406;2023-12-04T10:32:08;7.97;;;3.30;;
71734;SDS011;59577;52.122;5.406;2023-12-04T10:34:35;7.85;;;3.75;;
71734;SDS011;59577;52.122;5.406;2023-12-04T10:37:02;5.97;;;3.70;;
71734;SDS011;59577;52.122;5.406;2023-12-04T10:39:32;4.37;;;3.03;;
71734;SDS011;59577;52.122;5.406;2023-12-04T10:42:17;7.43;;;3.20;;
71734;SDS011;59577;52.122;5.406;2023-12-04T10:44:49;5.32;;;3.15;;
71734;SDS011;59577;52.122;5.406;2023-12-04T10:47:17;6.40;;;3.58;;
71734;SDS011;59577;52.122;5.406;2023-12-04T10:49:50;6.43;;;3.55;;
71734;SDS011;59577;52.122;5.406;2023-12-04T10:52:18;7.83;;;3.90;;
71734;SDS011;59577;52.122;5.406;2023-12-04T10:54:48;7.47;;;3.38;;
71734;SDS011;59577;52.122;5.406;2023-12-04T10:57:29;5.18;;;3.28;;
71734;SDS011;59577;52.122;5.406;2023-12-04T11:00:02;5.55;;;3.20;;
71734;SDS011;59577;52.122;5.406;2023-12-04T11:02:33;6.20;;;3.40;;
71734;SDS011;59577;52.122;5.406;2023-12-04T11:05:07;4.97;;;3.20;;
71734;SDS011;59577;52.122;5.406;2023-12-04T11:07:41;5.30;;;3.47;;
71734;SDS011;59577;52.122;5.406;2023-12-04T11:10:31;5.70;;;3.92;;
71734;SDS011;59577;52.122;5.406;2023-12-04T11:15:48;10.23;;;4.07;;
71734;SDS011;59577;52.122;5.406;2023-12-04T11:18:16;8.20;;;3.43;;
71734;SDS011;59577;52.122;5.406;2023-12-04T11:20:53;6.72;;;3.45;;
71734;SDS011;59577;52.122;5.406;2023-12-04T11:23:23;5.57;;;3.60;;
71734;SDS011;59577;52.122;5.406;2023-12-04T11:25:51;6.13;;;3.92;;
71734;SDS011;59577;52.122;5.406;2023-12-04T11:28:20;7.80;;;4.45;;
71734;SDS011;59577;52.122;5.406;2023-12-04T11:30:47;5.90;;;3.83;;
71734;SDS011;59577;52.122;5.406;2023-12-04T11:33:16;8.40;;;4.10;;
71734;SDS011;59577;52.122;5.406;2023-12-04T11:35:43;8.15;;;4.60;;
71734;SDS011;59577;52.122;5.406;2023-12-04T11:38:12;8.43;;;4.00;;
71734;SDS011;59577;52.122;5.406;2023-12-04T11:40:40;7.43;;;4.28;;
71734;SDS011;59577;52.122;5.406;2023-12-04T11:43:21;9.60;;;5.70;;
71734;SDS011;59577;52.122;5.406;2023-12-04T11:46:07;7.82;;;4.88;;
71734;SDS011;59577;52.122;5.406;2023-12-04T11:48:38;6.18;;;3.60;;
71734;SDS011;59577;52.122;5.406;2023-12-04T11:51:08;9.68;;;5.38;;
71734;SDS011;59577;52.122;5.406;2023-12-04T11:53:38;8.60;;;4.93;;
71734;SDS011;59577;52.122;5.406;2023-12-04T11:56:12;5.43;;;4.00;;
71734;SDS011;59577;52.122;5.406;2023-12-04T11:58:43;9.00;;;4.35;;
71734;SDS011;59577;52.122;5.406;2023-12-04T12:01:10;8.02;;;4.90;;
71734;SDS011;59577;52.122;5.406;2023-12-04T12:03:37;8.82;;;5.10;;
71734;SDS011;59577;52.122;5.406;2023-12-04T12:06:04;8.60;;;4.53;;
71734;SDS011;59577;52.122;5.406;2023-12-04T12:08:31;9.13;;;4.17;;
71734;SDS011;59577;52.122;5.406;2023-12-04T12:10:57;7.10;;;4.50;;
71734;SDS011;59577;52.122;5.406;2023-12-04T12:13:24;7.72;;;4.60;;
71734;SDS011;59577;52.122;5.406;2023-12-04T12:15:52;7.00;;;4.45;;
71734;SDS011;59577;52.122;5.406;2023-12-04T12:18:21;9.57;;;4.97;;
71734;SDS011;59577;52.122;5.406;2023-12-04T12:20:50;9.60;;;4.47;;
71734;SDS011;59577;52.122;5.406;2023-12-04T12:23:16;6.63;;;4.50;;
71734;SDS011;59577;52.122;5.406;2023-12-04T12:25:43;8.88;;;5.00;;
71734;SDS011;59577;52.122;5.406;2023-12-04T12:28:09;8.13;;;4.60;;
71734;SDS011;59577;52.122;5.406;2023-12-04T12:30:36;8.50;;;4.40;;
71734;SDS011;59577;52.122;5.406;2023-12-04T12:33:03;13.67;;;4.17;;
71734;SDS011;59577;52.122;5.406;2023-12-04T12:35:30;14.27;;;4.65;;
71734;SDS011;59577;52.122;5.406;2023-12-04T12:37:56;7.85;;;4.93;;
71734;SDS011;59577;52.122;5.406;2023-12-04T12:40:23;8.80;;;4.60;;
71734;SDS011;59577;52.122;5.406;2023-12-04T12:42:50;10.18;;;4.75;;
71734;SDS011;59577;52.122;5.406;2023-12-04T12:45:18;7.53;;;4.53;;
71734;SDS011;59577;52.122;5.406;2023-12-04T12:47:44;7.40;;;4.72;;
71734;SDS011;59577;52.122;5.406;2023-12-04T12:50:11;7.60;;;4.65;;
71734;SDS011;59577;52.122;5.406;2023-12-04T12:52:40;7.15;;;4.05;;
71734;SDS011;59577;52.122;5.406;2023-12-04T12:55:07;8.93;;;5.22;;
71734;SDS011;59577;52.122;5.406;2023-12-04T12:57:34;6.87;;;4.77;;
71734;SDS011;59577;52.122;5.406;2023-12-04T13:00:01;7.53;;;4.55;;
71734;SDS011;59577;52.122;5.406;2023-12-04T13:02:27;9.13;;;4.50;;
71734;SDS011;59577;52.122;5.406;2023-12-04T13:04:54;7.45;;;4.82;;
71734;SDS011;59577;52.122;5.406;2023-12-04T13:07:22;8.88;;;4.80;;
71734;SDS011;59577;52.122;5.406;2023-12-04T13:09:49;7.03;;;4.03;;
71734;SDS011;59577;52.122;5.406;2023-12-04T13:12:16;8.70;;;4.93;;
71734;SDS011;59577;52.122;5.406;2023-12-04T13:14:42;9.05;;;4.65;;
71734;SDS011;59577;52.122;5.406;2023-12-04T13:17:09;7.68;;;4.53;;
71734;SDS011;59577;52.122;5.406;2023-12-04T13:19:36;7.40;;;4.55;;
71734;SDS011;59577;52.122;5.406;2023-12-04T13:22:03;8.63;;;4.40;;
71734;SDS011;59577;52.122;5.406;2023-12-04T13:24:31;7.40;;;4.75;;
71734;SDS011;59577;52.122;5.406;2023-12-04T13:26:57;6.35;;;4.00;;
71734;SDS011;59577;52.122;5.406;2023-12-04T13:29:24;9.27;;;4.47;;
71734;SDS011;59577;52.122;5.406;2023-12-04T13:31:50;6.85;;;4.00;;
71734;SDS011;59577;52.122;5.406;2023-12-04T13:34:17;6.53;;;3.90;;
71734;SDS011;59577;52.122;5.406;2023-12-04T13:36:44;8.02;;;4.35;;
71734;SDS011;59577;52.122;5.406;2023-12-04T13:39:11;8.60;;;4.55;;
71734;SDS011;59577;52.122;5.406;2023-12-04T13:41:44;8.43;;;4.35;;
71734;SDS011;59577;52.122;5.406;2023-12-04T13:44:30;8.73;;;4.35;;
71734;SDS011;59577;52.122;5.406;2023-12-04T13:46:57;9.63;;;4.87;;
71734;SDS011;59577;52.122;5.406;2023-12-04T13:49:23;8.30;;;4.65;;
71734;SDS011;59577;52.122;5.406;2023-12-04T13:51:50;9.23;;;4.43;;
71734;SDS011;59577;52.122;5.406;2023-12-04T13:54:17;8.32;;;3.53;;
71734;SDS011;59577;52.122;5.406;2023-12-04T13:56:47;8.07;;;4.57;;
71734;SDS011;59577;52.122;5.406;2023-12-04T13:59:22;8.60;;;4.57;;
71734;SDS011;59577;52.122;5.406;2023-12-04T14:01:50;11.05;;;4.53;;
71734;SDS011;59577;52.122;5.406;2023-12-04T14:04:18;7.97;;;4.97;;
71734;SDS011;59577;52.122;5.406;2023-12-04T14:06:45;8.68;;;4.03;;
71734;SDS011;59577;52.122;5.406;2023-12-04T14:09:12;9.23;;;4.72;;
71734;SDS011;59577;52.122;5.406;2023-12-04T14:11:43;9.47;;;4.93;;
71734;SDS011;59577;52.122;5.406;2023-12-04T14:14:12;7.28;;;4.40;;
71734;SDS011;59577;52.122;5.406;2023-12-04T14:16:40;8.25;;;4.25;;
71734;SDS011;59577;52.122;5.406;2023-12-04T14:19:08;6.60;;;4.20;;
71734;SDS011;59577;52.122;5.406;2023-12-04T14:21:35;7.97;;;4.53;;
71734;SDS011;59577;52.122;5.406;2023-12-04T14:24:02;8.50;;;3.93;;
71734;SDS011;59577;52.122;5.406;2023-12-04T14:26:28;10.60;;;4.82;;
71734;SDS011;59577;52.122;5.406;2023-12-04T14:28:55;6.75;;;4.25;;
71734;SDS011;59577;52.122;5.406;2023-12-04T14:31:23;8.75;;;3.80;;
71734;SDS011;59577;52.122;5.406;2023-12-04T14:33:50;6.93;;;4.75;;
71734;SDS011;59577;52.122;5.406;2023-12-04T14:36:16;8.90;;;4.37;;
71734;SDS011;59577;52.122;5.406;2023-12-04T14:38:43;12.15;;;4.90;;
71734;SDS011;59577;52.122;5.406;2023-12-04T14:41:09;8.70;;;5.25;;
71734;SDS011;59577;52.122;5.406;2023-12-04T14:43:36;9.27;;;4.65;;
71734;SDS011;59577;52.122;5.406;2023-12-04T14:46:04;7.78;;;3.88;;
71734;SDS011;59577;52.122;5.406;2023-12-04T14:48:31;11.47;;;5.47;;